createdAt,value
2023-05-15T00:02:26.816Z,99.90
2023-05-15T00:04:54.064Z,99.90
2023-05-15T00:07:21.214Z,99.90
2023-05-15T00:09:48.201Z,99.90
2023-05-15T00:12:15.490Z,99.90
2023-05-15T00:14:42.382Z,99.90
2023-05-15T00:17:09.893Z,99.90
2023-05-15T00:19:36.836Z,99.90
2023-05-15T00:22:04.059Z,99.90
2023-05-15T00:24:30.984Z,99.90
2023-05-15T00:27:00.157Z,99.90
2023-05-15T00:29:27.514Z,99.90
2023-05-15T00:31:54.731Z,99.90
2023-05-15T00:34:22.205Z,99.90
2023-05-15T00:36:49.440Z,99.90
2023-05-15T00:39:16.437Z,99.90
2023-05-15T00:41:45.778Z,99.90
2023-05-15T00:44:13.784Z,99.90
2023-05-15T00:46:41.952Z,99.90
2023-05-15T00:49:13.592Z,99.90
2023-05-15T00:51:43.913Z,99.90
2023-05-15T00:54:11.583Z,99.90
2023-05-15T00:56:40.307Z,99.90
2023-05-15T00:59:08.666Z,99.90
2023-05-15T01:01:35.816Z,99.90
2023-05-15T01:04:05.145Z,99.90
2023-05-15T01:06:32.770Z,99.90
2023-05-15T01:09:08.028Z,99.90
2023-05-15T01:11:38.199Z,99.90
2023-05-15T01:14:08.017Z,99.90
2023-05-15T01:16:36.334Z,99.90
2023-05-15T01:19:05.451Z,99.90
2023-05-15T01:21:35.688Z,99.90
2023-05-15T01:24:56.597Z,99.90
2023-05-15T01:27:48.650Z,99.90
2023-05-15T01:30:27.116Z,99.90
2023-05-15T01:33:20.610Z,99.90
2023-05-15T01:36:05.967Z,99.90
2023-05-15T01:38:48.901Z,99.90
2023-05-15T01:41:55.870Z,99.90
2023-05-15T01:44:30.212Z,99.90
2023-05-15T01:47:07.808Z,99.90
2023-05-15T01:49:38.497Z,99.90
2023-05-15T01:52:18.857Z,99.90
2023-05-15T01:54:48.003Z,99.90
2023-05-15T01:57:17.096Z,99.90
2023-05-15T01:59:45.913Z,99.90
2023-05-15T02:02:15.328Z,99.90
2023-05-15T02:04:45.948Z,99.90
2023-05-15T02:07:14.724Z,99.90
2023-05-15T02:09:43.160Z,99.90
2023-05-15T02:12:11.791Z,99.90
2023-05-15T02:14:41.247Z,99.90
2023-05-15T02:17:08.465Z,99.90
2023-05-15T02:19:35.798Z,99.90
2023-05-15T02:22:03.670Z,99.90
2023-05-15T02:24:30.626Z,99.90
2023-05-15T02:27:28.522Z,99.90
2023-05-15T02:30:29.452Z,99.90
2023-05-15T02:33:17.348Z,99.90
2023-05-15T02:35:52.849Z,99.90
2023-05-15T02:38:29.151Z,99.90
2023-05-15T02:40:59.175Z,99.90
2023-05-15T02:43:27.809Z,99.90
2023-05-15T02:45:56.981Z,99.90
2023-05-15T02:48:26.926Z,99.90
2023-05-15T02:50:54.200Z,99.90
2023-05-15T02:53:21.554Z,99.90
2023-05-15T02:55:48.600Z,99.90
2023-05-15T02:58:16.106Z,99.90
2023-05-15T03:00:43.867Z,99.90
2023-05-15T03:03:10.824Z,99.90
2023-05-15T03:05:37.832Z,99.90
2023-05-15T03:08:05.748Z,99.90
2023-05-15T03:10:32.744Z,99.90
2023-05-15T03:12:59.688Z,99.90
2023-05-15T03:15:26.974Z,99.90
2023-05-15T03:17:54.144Z,99.90
2023-05-15T03:20:21.294Z,99.90
2023-05-15T03:22:48.366Z,99.90
2023-05-15T03:25:15.785Z,99.90
2023-05-15T03:27:42.922Z,99.90
2023-05-15T03:30:10.678Z,99.90
2023-05-15T03:32:37.605Z,99.90
2023-05-15T03:35:05.011Z,99.90
2023-05-15T03:37:32.623Z,99.90
2023-05-15T03:39:59.567Z,99.90
2023-05-15T03:42:27.896Z,99.90
2023-05-15T03:44:56.121Z,99.90
2023-05-15T03:47:23.232Z,99.90
2023-05-15T03:49:52.986Z,99.90
2023-05-15T03:52:20.068Z,99.90
2023-05-15T03:54:47.061Z,99.90
2023-05-15T03:57:13.991Z,99.90
2023-05-15T03:59:41.350Z,99.90
2023-05-15T04:02:08.417Z,99.90
2023-05-15T04:04:35.895Z,99.90
2023-05-15T04:07:02.864Z,99.90
2023-05-15T04:09:29.764Z,99.90
2023-05-15T04:11:56.866Z,99.90
2023-05-15T04:14:23.732Z,99.90
2023-05-15T04:16:50.858Z,99.90
2023-05-15T04:19:18.057Z,99.90
2023-05-15T04:21:45.250Z,99.90
2023-05-15T04:24:12.903Z,99.90
2023-05-15T04:26:39.917Z,99.90
2023-05-15T04:29:06.903Z,99.90
2023-05-15T04:31:35.161Z,99.90
2023-05-15T04:34:02.265Z,99.90
2023-05-15T04:36:29.266Z,99.90
2023-05-15T04:38:56.421Z,99.90
2023-05-15T04:41:23.566Z,99.90
2023-05-15T04:43:50.858Z,99.90
2023-05-15T04:46:17.819Z,99.90
2023-05-15T04:48:44.745Z,99.90
2023-05-15T04:51:12.198Z,99.90
2023-05-15T04:53:39.136Z,99.90
2023-05-15T04:56:06.306Z,99.90
2023-05-15T04:58:33.192Z,99.90
2023-05-15T05:01:03.543Z,99.90
2023-05-15T05:03:31.046Z,99.90
2023-05-15T05:05:58.006Z,99.90
2023-05-15T05:08:24.987Z,99.90
2023-05-15T05:10:58.433Z,99.90
2023-05-15T05:13:25.409Z,99.90
2023-05-15T05:15:52.358Z,99.90
2023-05-15T05:18:19.402Z,99.90
2023-05-15T05:20:46.346Z,99.90
2023-05-15T05:23:15.068Z,99.90
2023-05-15T05:25:42.212Z,99.90
2023-05-15T05:28:09.279Z,99.90
2023-05-15T05:30:36.229Z,99.90
2023-05-15T05:33:03.318Z,99.90
2023-05-15T05:35:30.292Z,99.90
2023-05-15T05:37:57.267Z,99.90
2023-05-15T05:40:24.248Z,99.90
2023-05-15T05:42:51.652Z,99.90
2023-05-15T05:45:18.700Z,99.90
2023-05-15T05:47:45.817Z,99.90
2023-05-15T05:50:12.790Z,99.90
2023-05-15T05:52:39.826Z,99.90
2023-05-15T05:55:07.218Z,99.90
2023-05-15T05:57:34.228Z,99.90
2023-05-15T06:00:01.349Z,99.90
2023-05-15T06:02:28.869Z,99.90
2023-05-15T06:04:55.828Z,99.90
2023-05-15T06:07:23.479Z,99.90
2023-05-15T06:09:50.504Z,99.90
2023-05-15T06:12:17.442Z,99.90
2023-05-15T06:14:44.447Z,99.90
2023-05-15T06:17:12.080Z,99.90
2023-05-15T06:19:39.094Z,99.90
2023-05-15T06:22:06.169Z,99.90
2023-05-15T06:24:33.304Z,99.90
2023-05-15T06:27:03.657Z,99.90
2023-05-15T06:29:30.790Z,99.90
2023-05-15T06:31:57.873Z,99.90
2023-05-15T06:34:24.936Z,99.90
2023-05-15T06:36:52.592Z,99.90
2023-05-15T06:39:19.605Z,99.90
2023-05-15T06:41:46.581Z,99.90
2023-05-15T06:44:13.647Z,99.90
2023-05-15T06:46:40.660Z,99.90
2023-05-15T06:49:07.655Z,99.90
2023-05-15T06:51:34.726Z,99.90
2023-05-15T06:54:01.810Z,99.90
2023-05-15T06:56:28.641Z,99.90
2023-05-15T06:58:56.551Z,99.90
2023-05-15T07:01:23.507Z,99.90
2023-05-15T07:03:50.580Z,99.90
2023-05-15T07:06:17.455Z,99.90
2023-05-15T07:08:44.498Z,99.90
2023-05-15T07:11:11.841Z,99.90
2023-05-15T07:13:38.854Z,99.90
2023-05-15T07:16:06.299Z,99.90
2023-05-15T07:18:33.440Z,99.90
2023-05-15T07:21:00.434Z,99.90
2023-05-15T07:23:27.653Z,99.90
2023-05-15T07:25:55.790Z,99.90
2023-05-15T07:28:23.113Z,99.90
2023-05-15T07:30:50.676Z,99.90
2023-05-15T07:33:17.744Z,99.90
2023-05-15T07:35:44.635Z,99.90
2023-05-15T07:38:12.111Z,99.90
2023-05-15T07:40:39.094Z,99.90
2023-05-15T07:43:06.042Z,99.90
2023-05-15T07:45:33.165Z,99.90
2023-05-15T07:48:13.699Z,99.90
2023-05-15T07:50:40.910Z,99.90
2023-05-15T07:53:07.888Z,99.90
2023-05-15T07:55:34.803Z,99.90
2023-05-15T07:58:01.746Z,99.90
2023-05-15T08:00:28.904Z,99.90
2023-05-15T08:02:56.417Z,99.90
2023-05-15T08:05:23.522Z,99.90
2023-05-15T08:07:50.801Z,99.90
2023-05-15T08:10:17.907Z,99.90
2023-05-15T08:12:47.167Z,99.90
2023-05-15T08:15:14.642Z,99.90
2023-05-15T08:17:41.758Z,99.90
2023-05-15T08:20:09.936Z,99.90
2023-05-15T08:22:36.923Z,99.90
2023-05-15T08:25:06.713Z,99.90
2023-05-15T08:27:33.869Z,99.90
2023-05-15T08:30:00.943Z,99.50
2023-05-15T08:32:28.131Z,99.00
2023-05-15T08:34:55.061Z,98.80
2023-05-15T08:37:22.101Z,98.80
2023-05-15T08:39:48.985Z,98.50
2023-05-15T08:42:34.119Z,98.30
2023-05-15T08:45:03.942Z,97.70
2023-05-15T08:47:35.559Z,98.50
2023-05-15T08:50:17.176Z,98.00
2023-05-15T08:52:49.499Z,96.30
2023-05-15T08:55:17.584Z,96.50
2023-05-15T08:57:46.263Z,96.60
2023-05-15T09:00:14.779Z,95.80
2023-05-15T09:02:43.163Z,96.30
2023-05-15T09:05:10.847Z,95.70
2023-05-15T09:07:40.894Z,95.20
2023-05-15T09:10:09.814Z,94.70
2023-05-15T09:12:45.971Z,94.90
2023-05-15T09:15:17.298Z,94.00
2023-05-15T09:17:45.965Z,93.80
2023-05-15T09:20:34.008Z,93.70
2023-05-15T09:23:04.548Z,92.80
2023-05-15T09:25:44.742Z,93.80
2023-05-15T09:28:28.087Z,93.20
2023-05-15T09:31:05.860Z,93.40
2023-05-15T09:33:38.820Z,93.30
2023-05-15T09:36:08.386Z,93.60
2023-05-15T09:38:48.115Z,93.00
2023-05-15T09:41:15.259Z,93.20
2023-05-15T09:43:42.271Z,92.70
2023-05-15T09:46:12.312Z,92.60
2023-05-15T09:48:39.492Z,92.70
2023-05-15T09:51:15.437Z,92.70
2023-05-15T09:53:42.695Z,93.00
2023-05-15T09:56:10.574Z,92.80
2023-05-15T09:58:37.634Z,92.60
2023-05-15T10:01:11.995Z,92.30
2023-05-15T10:03:43.677Z,92.20
2023-05-15T10:06:19.440Z,92.60
2023-05-15T10:08:56.058Z,92.90
2023-05-15T10:11:24.605Z,92.60
2023-05-15T10:13:51.592Z,93.00
2023-05-15T10:16:21.652Z,92.50
2023-05-15T10:18:51.364Z,92.80
2023-05-15T10:21:23.070Z,92.80
2023-05-15T10:23:54.866Z,92.80
2023-05-15T10:26:42.937Z,93.20
2023-05-15T10:29:18.319Z,93.20
2023-05-15T10:31:49.096Z,93.40
2023-05-15T10:34:18.611Z,93.90
2023-05-15T10:36:46.341Z,93.60
2023-05-15T10:39:13.917Z,94.20
2023-05-15T10:41:40.906Z,93.80
2023-05-15T10:44:08.721Z,93.70
2023-05-15T10:46:37.269Z,93.70
2023-05-15T10:49:05.384Z,93.50
2023-05-15T10:51:36.001Z,93.50
2023-05-15T10:54:06.073Z,93.60
2023-05-15T10:56:37.317Z,93.60
2023-05-15T10:59:11.044Z,93.40
2023-05-15T11:01:41.016Z,93.40
2023-05-15T11:04:10.600Z,93.30
2023-05-15T11:06:41.322Z,93.20
2023-05-15T11:09:27.728Z,93.90
2023-05-15T11:11:58.280Z,93.30
2023-05-15T11:14:27.734Z,93.50
2023-05-15T11:16:54.654Z,93.80
2023-05-15T11:19:38.010Z,94.00
2023-05-15T11:22:27.666Z,93.60
2023-05-15T11:25:14.363Z,93.60
2023-05-15T11:27:43.214Z,93.80
2023-05-15T11:30:22.410Z,93.80
2023-05-15T11:32:52.407Z,93.80
2023-05-15T11:35:24.066Z,93.80
2023-05-15T11:38:12.328Z,94.00
2023-05-15T11:40:59.041Z,94.10
2023-05-15T11:43:28.756Z,94.00
2023-05-15T11:46:18.718Z,94.50
2023-05-15T11:48:50.434Z,94.50
2023-05-15T11:51:27.635Z,94.50
2023-05-15T11:53:56.063Z,94.50
2023-05-15T11:56:30.507Z,94.60
2023-05-15T11:58:59.797Z,94.90
2023-05-15T12:01:27.334Z,94.90
2023-05-15T12:03:54.867Z,94.90
2023-05-15T12:06:22.925Z,94.90
2023-05-15T12:08:53.902Z,95.00
2023-05-15T12:11:25.588Z,95.30
2023-05-15T12:13:55.000Z,95.30
2023-05-15T12:16:28.700Z,95.30
2023-05-15T12:18:59.773Z,95.50
2023-05-15T12:21:27.908Z,95.60
2023-05-15T12:24:07.527Z,95.80
2023-05-15T12:26:36.090Z,96.10
2023-05-15T12:29:05.175Z,96.30
2023-05-15T12:31:35.764Z,96.80
2023-05-15T12:34:03.219Z,96.90
2023-05-15T12:36:31.064Z,97.60
2023-05-15T12:38:58.804Z,97.50
2023-05-15T12:41:29.300Z,97.70
2023-05-15T12:43:56.358Z,97.70
2023-05-15T12:46:29.315Z,97.30
2023-05-15T12:48:59.857Z,97.70
2023-05-15T12:51:29.819Z,97.50
2023-05-15T12:53:59.662Z,97.50
2023-05-15T12:56:26.586Z,97.70
2023-05-15T12:58:54.605Z,97.90
2023-05-15T13:01:22.628Z,98.00
2023-05-15T13:03:51.003Z,98.10
2023-05-15T13:06:18.300Z,98.10
2023-05-15T13:08:46.495Z,98.10
2023-05-15T13:11:14.907Z,98.60
2023-05-15T13:13:43.093Z,98.60
2023-05-15T13:16:21.660Z,98.50
2023-05-15T13:18:48.895Z,98.60
2023-05-15T13:21:16.329Z,98.60
2023-05-15T13:23:43.497Z,98.60
2023-05-15T13:26:10.483Z,97.80
2023-05-15T13:28:37.470Z,96.90
2023-05-15T13:31:04.935Z,96.50
2023-05-15T13:33:32.066Z,96.30
2023-05-15T13:35:59.075Z,95.60
2023-05-15T13:38:26.211Z,95.80
2023-05-15T13:40:53.139Z,95.20
2023-05-15T13:43:20.178Z,95.10
2023-05-15T13:45:47.349Z,94.90
2023-05-15T13:48:14.316Z,95.00
2023-05-15T13:50:43.200Z,95.00
2023-05-15T13:53:10.161Z,95.10
2023-05-15T13:55:37.098Z,95.20
2023-05-15T13:58:04.455Z,95.50
2023-05-15T14:00:31.481Z,95.70
2023-05-15T14:02:58.673Z,96.00
2023-05-15T14:05:25.688Z,96.30
2023-05-15T14:07:52.650Z,96.80
2023-05-15T14:10:19.811Z,97.20
2023-05-15T14:12:47.175Z,97.40
2023-05-15T14:15:14.094Z,97.80
2023-05-15T14:17:41.486Z,97.90
2023-05-15T14:20:12.969Z,98.30
2023-05-15T14:22:40.726Z,98.50
2023-05-15T14:25:09.032Z,98.50
2023-05-15T14:27:36.103Z,98.70
2023-05-15T14:30:03.124Z,99.00
2023-05-15T14:32:30.122Z,98.80
2023-05-15T14:34:59.864Z,98.80
2023-05-15T14:37:28.371Z,99.00
2023-05-15T14:39:55.359Z,99.10
2023-05-15T14:42:22.325Z,99.60
2023-05-15T14:44:49.485Z,99.50
2023-05-15T14:47:16.853Z,99.70
2023-05-15T14:49:43.857Z,99.90
2023-05-15T14:52:12.572Z,99.90
2023-05-15T14:54:40.154Z,99.50
2023-05-15T14:57:08.023Z,99.00
2023-05-15T14:59:35.344Z,98.80
2023-05-15T15:02:02.607Z,97.80
2023-05-15T15:04:34.272Z,97.50
2023-05-15T15:07:05.096Z,97.40
2023-05-15T15:09:32.136Z,97.20
2023-05-15T15:12:02.342Z,97.40
2023-05-15T15:14:29.436Z,97.30
2023-05-15T15:16:56.451Z,97.40
2023-05-15T15:19:23.683Z,97.00
2023-05-15T15:21:50.819Z,96.90
2023-05-15T15:24:17.890Z,96.90
2023-05-15T15:26:44.868Z,96.30
2023-05-15T15:29:14.835Z,96.80
2023-05-15T15:31:42.098Z,96.30
2023-05-15T15:34:10.135Z,96.10
2023-05-15T15:36:41.493Z,96.10
2023-05-15T15:39:08.579Z,96.10
2023-05-15T15:41:38.615Z,96.00
2023-05-15T15:44:05.645Z,96.30
2023-05-15T15:46:32.640Z,96.30
2023-05-15T15:49:00.260Z,96.50
2023-05-15T15:51:27.380Z,96.40
2023-05-15T15:53:54.390Z,96.30
2023-05-15T15:56:21.413Z,96.40
2023-05-15T15:58:48.375Z,96.50
2023-05-15T16:01:15.538Z,97.10
2023-05-15T16:03:42.524Z,96.90
2023-05-15T16:06:09.467Z,97.10
2023-05-15T16:08:36.613Z,97.20
2023-05-15T16:11:04.111Z,97.30
2023-05-15T16:13:31.243Z,97.40
2023-05-15T16:15:58.218Z,97.70
2023-05-15T16:18:25.207Z,98.00
2023-05-15T16:20:52.172Z,98.00
2023-05-15T16:23:21.218Z,97.60
2023-05-15T16:25:48.286Z,97.70
2023-05-15T16:28:15.332Z,97.70
2023-05-15T16:30:48.976Z,98.00
2023-05-15T16:33:18.677Z,98.20
2023-05-15T16:35:47.375Z,98.40
2023-05-15T16:38:14.720Z,98.00
2023-05-15T16:40:41.736Z,98.00
2023-05-15T16:43:09.066Z,98.00
2023-05-15T16:45:36.248Z,98.10
2023-05-15T16:48:03.782Z,98.90
2023-05-15T16:50:32.716Z,98.20
2023-05-15T16:52:59.725Z,99.20
2023-05-15T16:55:27.011Z,98.40
2023-05-15T16:57:54.177Z,98.40
2023-05-15T17:00:21.990Z,99.10
2023-05-15T17:02:50.763Z,99.00
2023-05-15T17:05:18.014Z,99.60
2023-05-15T17:07:45.376Z,98.50
2023-05-15T17:10:13.342Z,98.70
2023-05-15T17:12:40.665Z,99.70
2023-05-15T17:15:08.508Z,98.90
2023-05-15T17:17:35.895Z,99.00
2023-05-15T17:20:05.674Z,99.00
2023-05-15T17:22:32.895Z,98.50
2023-05-15T17:24:59.919Z,98.90
2023-05-15T17:27:26.856Z,98.70
2023-05-15T17:29:53.781Z,98.60
2023-05-15T17:32:21.558Z,98.30
2023-05-15T17:34:50.147Z,98.70
2023-05-15T17:37:17.495Z,98.40
2023-05-15T17:39:44.441Z,99.10
2023-05-15T17:42:11.416Z,98.60
2023-05-15T17:44:38.610Z,99.50
2023-05-15T17:47:06.774Z,98.70
2023-05-15T17:49:34.498Z,98.80
2023-05-15T17:52:01.613Z,99.60
2023-05-15T17:54:28.765Z,99.30
2023-05-15T17:56:56.252Z,99.80
2023-05-15T17:59:23.499Z,99.50
2023-05-15T18:01:50.481Z,99.40
2023-05-15T18:04:17.544Z,99.80
2023-05-15T18:06:44.589Z,99.70
2023-05-15T18:09:11.945Z,99.70
2023-05-15T18:11:38.977Z,99.80
2023-05-15T18:14:10.404Z,99.90
2023-05-15T18:16:38.583Z,99.90
2023-05-15T18:19:05.856Z,99.90
2023-05-15T18:21:34.145Z,99.90
2023-05-15T18:24:02.048Z,99.90
2023-05-15T18:26:31.150Z,99.90
2023-05-15T18:28:58.088Z,99.90
2023-05-15T18:31:25.234Z,99.90
2023-05-15T18:33:52.220Z,99.90
2023-05-15T18:36:20.491Z,99.90
2023-05-15T18:38:47.533Z,99.90
2023-05-15T18:41:14.438Z,99.90
2023-05-15T18:43:41.415Z,99.90
2023-05-15T18:46:08.396Z,99.90
2023-05-15T18:48:35.400Z,99.90
2023-05-15T18:51:02.635Z,99.90
2023-05-15T18:53:29.606Z,99.90
2023-05-15T18:55:56.566Z,99.90
2023-05-15T18:58:24.049Z,99.90
2023-05-15T19:00:50.997Z,99.90
2023-05-15T19:03:19.251Z,99.90
2023-05-15T19:05:46.226Z,99.90
2023-05-15T19:08:13.122Z,99.90
2023-05-15T19:10:40.254Z,99.90
2023-05-15T19:13:07.140Z,99.90
2023-05-15T19:15:35.060Z,99.90
2023-05-15T19:18:02.029Z,99.90
2023-05-15T19:20:29.093Z,99.90
2023-05-15T19:22:56.031Z,99.90
2023-05-15T19:25:23.341Z,99.90
2023-05-15T19:27:50.372Z,99.90
2023-05-15T19:30:17.424Z,99.90
2023-05-15T19:32:45.457Z,99.90
2023-05-15T19:35:12.449Z,99.90
2023-05-15T19:37:39.451Z,99.90
2023-05-15T19:40:07.493Z,99.90
2023-05-15T19:42:34.464Z,99.90
2023-05-15T19:45:01.443Z,99.90
2023-05-15T19:47:28.411Z,99.90
2023-05-15T19:49:55.326Z,99.90
2023-05-15T19:52:22.356Z,99.90
2023-05-15T19:54:49.247Z,99.90
2023-05-15T19:57:16.304Z,99.90
2023-05-15T19:59:43.248Z,99.90
2023-05-15T20:02:11.166Z,99.90
2023-05-15T20:04:38.143Z,99.90
2023-05-15T20:07:05.607Z,99.90
2023-05-15T20:09:32.663Z,99.90
2023-05-15T20:11:59.726Z,99.90
2023-05-15T20:14:27.431Z,99.90
2023-05-15T20:16:54.309Z,99.90
2023-05-15T20:19:24.797Z,99.90
2023-05-15T20:21:52.269Z,99.90
2023-05-15T20:24:19.171Z,99.90
2023-05-15T20:26:46.207Z,99.90
2023-05-15T20:29:13.139Z,99.90
2023-05-15T20:31:40.382Z,99.90
2023-05-15T20:34:08.343Z,99.90
2023-05-15T20:36:38.733Z,99.90
2023-05-15T20:39:07.196Z,99.90
2023-05-15T20:41:34.714Z,99.90
2023-05-15T20:44:01.827Z,99.90
2023-05-15T20:46:30.236Z,99.90
2023-05-15T20:48:57.491Z,99.90
2023-05-15T20:51:24.603Z,99.90
2023-05-15T20:53:51.663Z,99.90
2023-05-15T20:56:18.835Z,99.90
2023-05-15T20:58:46.064Z,99.90
2023-05-15T21:01:13.178Z,99.90
2023-05-15T21:03:40.234Z,99.90
2023-05-15T21:06:08.037Z,99.90
2023-05-15T21:08:35.478Z,99.90
2023-05-15T21:11:02.544Z,99.90
2023-05-15T21:13:29.601Z,99.90
2023-05-15T21:15:56.554Z,99.90
2023-05-15T21:18:23.817Z,99.90
2023-05-15T21:20:50.881Z,99.90
2023-05-15T21:23:18.228Z,99.90
2023-05-15T21:25:45.268Z,99.90
2023-05-15T21:28:12.419Z,99.90
2023-05-15T21:30:39.393Z,99.90
2023-05-15T21:33:06.396Z,99.90
2023-05-15T21:35:33.678Z,99.90
2023-05-15T21:38:00.885Z,99.90
2023-05-15T21:40:28.020Z,99.90
2023-05-15T21:42:55.052Z,99.90
2023-05-15T21:45:22.032Z,99.90
2023-05-15T21:47:49.072Z,99.90
2023-05-15T21:50:16.128Z,99.90
2023-05-15T21:52:43.277Z,99.90
2023-05-15T21:55:10.611Z,99.90
2023-05-15T21:57:37.620Z,99.90
2023-05-15T22:00:07.480Z,99.90
2023-05-15T22:02:35.562Z,99.90
2023-05-15T22:05:03.749Z,99.90
2023-05-15T22:07:30.932Z,99.90
2023-05-15T22:09:57.814Z,99.90
2023-05-15T22:12:24.743Z,99.90
2023-05-15T22:14:58.840Z,99.90
2023-05-15T22:17:29.105Z,99.90
2023-05-15T22:20:06.605Z,99.90
2023-05-15T22:22:35.684Z,99.90
2023-05-15T22:25:02.841Z,99.90
2023-05-15T22:27:30.135Z,99.90
2023-05-15T22:29:57.707Z,99.90
2023-05-15T22:32:24.963Z,99.90
2023-05-15T22:34:51.990Z,99.90
2023-05-15T22:37:19.099Z,99.90
2023-05-15T22:39:46.139Z,99.90
2023-05-15T22:42:13.091Z,99.90
2023-05-15T22:44:40.314Z,99.90
2023-05-15T22:47:07.782Z,99.90
2023-05-15T22:49:34.907Z,99.90
2023-05-15T22:52:01.966Z,99.90
2023-05-15T22:54:29.352Z,99.90
2023-05-15T22:56:56.550Z,99.90
2023-05-15T22:59:23.593Z,99.90
2023-05-15T23:01:50.672Z,99.90
2023-05-15T23:04:18.634Z,99.90
2023-05-15T23:06:46.523Z,99.90
2023-05-15T23:09:13.512Z,99.90
2023-05-15T23:11:40.481Z,99.90
2023-05-15T23:14:09.807Z,99.90
2023-05-15T23:16:36.775Z,99.90
2023-05-15T23:19:04.301Z,99.90
2023-05-15T23:21:31.355Z,99.90
2023-05-15T23:23:59.104Z,99.90
2023-05-15T23:26:29.052Z,99.90
2023-05-15T23:28:55.997Z,99.90
2023-05-15T23:31:22.960Z,99.90
2023-05-15T23:33:51.673Z,99.90
2023-05-15T23:36:18.747Z,99.90
2023-05-15T23:38:45.763Z,99.90
2023-05-15T23:41:12.849Z,99.90
2023-05-15T23:43:39.801Z,99.90
2023-05-15T23:46:06.794Z,99.90
2023-05-15T23:48:34.071Z,99.90
2023-05-15T23:51:01.046Z,99.90
2023-05-15T23:53:28.029Z,99.90
2023-05-15T23:55:54.984Z,99.90
2023-05-15T23:58:21.975Z,99.90
